Natalia, Texas
Current Conditions -  °F | °C
As of 8:55 PM on Wednesday 26 Nov 2014 (Local Time) from KCVB Reporting Station
Clear Clear  
Wind Chill: 47°   Ceiling: Unl
Heat Index: 49°   Visibility: 10mi
Dew Point: 37°   Wind: 5mph
Humidity: 64%   Direction: 350°N
Pressure: 30.28"   Gusts: NA
Location:  29.19°N, 98.86°W
Report Text: KCVB 270255Z AUTO 35004KT 10SM CLR 10/03 A3028 RMK AO2 T00950030
Loading
Personal Weather Stations






























Interactive Weather Map New forecast layout! Learn more

10-Day Weather Forecast

Advertisements
Track Severe Weather on mobile